x

Mojave Weather Station

9:00pm - Fri 28th Apr 2017 All times are PDT. -7 hours from GMT.

  • Wind
    8mph, 17mph gusts
  • Air Temp 61°f
  • Sea Pressure 1013.2mb
  • Mojave
  • Mojave

More Historic Weather Station data

Upgrade to MSW Pro to gain access to the past 30 days of data for over 8000 Wavebouys and Weather Stations around the globe.

Join Pro

Comparision Forecast

View Surf forecast
   
Fri 04/28 9:00pm 8 17 mph 1013.2mb 61f
8:00pm 20 28 mph 1011.5mb 61f
7:00pm 27 36 mph 1010.5mb 63f
6:00pm 27 37 mph 1010.2mb 66f
5:00pm 27 35 mph 1010.2mb 68f
4:00pm 25 32 mph 1010.5mb 68f
3:00pm 29
mph
1010.2mb 72f
2:00pm 27 35 mph 1010.8mb 72f
1:00pm 20 30 mph 1011.2mb 72f
12:00pm 9 15 mph 1011.9mb 70f
11:00am 14 27 mph 1012.5mb 68f
10:00am 23
mph
1012.5mb 64f
9:00am 16
mph
1012.5mb 61f
8:00am 14 32 mph 1012.5mb 59f
7:00am 12 20 mph 1012.2mb 55f
6:00am 14
mph
1011.5mb 50f
5:00am 15
mph
1011.2mb 54f
4:00am 9 32 mph 1010.8mb 54f
3:00am 15 22 mph 1010.8mb 54f
2:00am 12
mph
1011.2mb 55f
1:00am 15 23 mph 1010.8mb 55f
12:00am 14 24 mph 1010.8mb 57f
Thu 04/27 11:00pm 16 29 mph 1010.8mb 57f
10:00pm 17 27 mph 1010.8mb 59f
9:00pm 14 27 mph 1010.8mb 59f
8:00pm 13 25 mph 1010.8mb 61f
7:00pm 21 28 mph 1010.2mb 63f
6:00pm 15 35 mph 1010.8mb 63f
5:00pm 25 32 mph 1010.5mb 64f
4:00pm 25 37 mph 1011.5mb 64f
3:00pm 14 29 mph 1011.9mb 64f
2:00pm 17 30 mph 1011.9mb 63f
1:00pm 21 33 mph 1012.2mb 64f
12:00pm 25 32 mph 1012.2mb 61f
11:00am 21 28 mph 1012.9mb 63f
10:00am 29 36 mph 1012.5mb 61f
9:00am 27 35 mph 1012.2mb 59f
8:00am 27
mph
1011.9mb 59f
7:00am 15 23 mph 1012.2mb 57f
6:00am 14 21 mph 1011.9mb 57f
5:00am 14
mph
1011.9mb 57f
4:00am 10 20 mph 1012.2mb 57f
3:00am 16 23 mph 1012.2mb 59f
2:00am 16 23 mph 1012.2mb 59f
1:00am 18 28 mph 1012.9mb 61f
12:00am 14 22 mph 1012.9mb 61f
Wed 04/26 11:00pm 6 15 mph 1012.9mb 61f
10:00pm 10 20 mph 1012.9mb 63f
9:00pm 15 24 mph 1012.5mb 63f
8:00pm 18 29 mph 1012.5mb 63f
7:00pm 14 30 mph 1012.9mb 63f
6:00pm 23 32 mph 1013.2mb 63f
5:00pm 23 32 mph 1013.5mb 64f
4:00pm 20 32 mph 1013.5mb 68f
3:00pm 21 30 mph 1013.5mb 70f
2:00pm 30
mph
1013.9mb 70f
1:00pm 28
mph
1013.5mb 70f
12:00pm 23 31 mph 1014.2mb 70f
11:00am 24 30 mph 1014.6mb 68f
10:00am 24 32 mph 1014.2mb 64f
9:00am 28
mph
1013.9mb 59f
8:00am 30 39 mph 1014.2mb 59f
7:00am 29 38 mph 1013.2mb 55f
6:00am 35
mph
1012.9mb 54f
5:00am 23 30 mph 1013.5mb 55f
4:00am 39 47 mph 1011.9mb 55f
3:00am 41 51 mph 1011.9mb 55f
2:00am 31 53 mph 1013.2mb 55f
1:00am 32 53 mph 1013.2mb 55f
12:00am 30 43 mph 1013.5mb 55f
Tue 04/25 11:00pm 35 46 mph 1013.2mb 57f
10:00pm 22 39 mph 1013.9mb 57f
9:00pm 25 40 mph 1013.2mb 57f
8:00pm 27 32 mph 1012.5mb 57f
7:00pm 24 32 mph 1012.2mb 59f
6:00pm 25 35 mph 1012.2mb 61f
5:00pm 25 36 mph 1011.9mb 64f
4:00pm 31 38 mph 1011.9mb 64f
3:00pm 28 33 mph 1012.2mb 68f
2:00pm 27 35 mph 1012.2mb 66f
1:00pm 27 33 mph 1012.5mb 63f
12:00pm 32 39 mph 1013.5mb 61f
11:00am 27 37 mph 1013.2mb 61f
10:00am 29 37 mph 1012.5mb 61f
9:00am 32 39 mph 1011.9mb 59f
8:00am 22 35 mph 1012.5mb 54f
7:00am 20 29 mph 1012.9mb 50f
6:00am 21
mph
1012.2mb 50f
5:00am 17 29 mph 1012.5mb 50f